Time;durP1;ratioP1;P1;durP2;ratioP2;P2;SDS_P1;SDS_P2;PMS_P1;PMS_P2;Temp;Humidity;BMP_temperature;BMP_pressure;BME280_temperature;BME280_humidity;BME280_pressure;Samples;Min_cycle;Max_cycle;Signal;HPM_P1;HPM_P2
2022/03/17 00:00:03;;;;;;;65.13;46.42;;;6.20;1.00;;;;;;5079374;28;20220;-83
2022/03/17 00:02:30;;;;;;;47.05;34.20;;;6.20;1.00;;;;;;5076760;28;20280;-81
2022/03/17 00:04:57;;;;;;;44.67;33.92;;;6.20;1.00;;;;;;5082918;28;20225;-84
2022/03/17 00:07:24;;;;;;;44.33;32.60;;;6.20;1.00;;;;;;5062509;28;20335;-82
2022/03/17 00:09:51;;;;;;;44.38;33.90;;;6.10;1.00;;;;;;5078014;28;20225;-82
2022/03/17 00:12:18;;;;;;;46.63;34.55;;;6.10;1.00;;;;;;5081064;28;20217;-83
2022/03/17 00:14:44;;;;;;;48.70;36.50;;;6.10;1.00;;;;;;5084169;28;20217;-83
2022/03/17 00:17:12;;;;;;;52.63;36.67;;;6.10;1.00;;;;;;5084138;28;20217;-84
2022/03/17 00:19:39;;;;;;;50.72;35.78;;;6.00;1.00;;;;;;5079587;28;20230;-83
2022/03/17 00:22:08;;;;;;;48.45;34.70;;;6.10;1.00;;;;;;5085578;28;20236;-83
2022/03/17 00:24:36;;;;;;;49.92;33.95;;;6.00;1.00;;;;;;5083959;28;20221;-82
2022/03/17 00:27:05;;;;;;;47.95;35.53;;;6.00;1.00;;;;;;5087271;28;20281;-82
2022/03/17 00:29:33;;;;;;;46.78;34.05;;;6.00;1.00;;;;;;5087258;28;20381;-84
2022/03/17 00:31:59;;;;;;;47.80;34.42;;;6.00;1.00;;;;;;5084958;28;20306;-83
2022/03/17 00:34:27;;;;;;;46.25;34.00;;;6.00;1.00;;;;;;5085914;28;20237;-83
2022/03/17 00:36:54;;;;;;;50.03;35.58;;;6.00;1.00;;;;;;5094767;28;20265;-84
2022/03/17 00:39:21;;;;;;;49.00;36.33;;;6.00;1.00;;;;;;5111118;27;20272;-83
2022/03/17 00:41:48;;;;;;;49.47;36.72;;;5.90;1.00;;;;;;5114506;27;20319;-82
2022/03/17 00:44:16;;;;;;;49.08;35.35;;;5.90;1.00;;;;;;5098205;28;20297;-81
2022/03/17 00:46:42;;;;;;;47.63;34.17;;;5.90;1.00;;;;;;5080342;28;20328;-83
2022/03/17 00:49:12;;;;;;;48.35;37.47;;;5.90;1.00;;;;;;5104408;27;20216;-83
2022/03/17 00:51:40;;;;;;;51.00;37.65;;;5.80;1.00;;;;;;5091132;28;20239;-83
2022/03/17 00:54:07;;;;;;;47.55;37.22;;;5.80;1.00;;;;;;5085777;28;20232;-82
2022/03/17 00:56:35;;;;;;;48.78;34.65;;;5.80;1.00;;;;;;5093763;28;20383;-83
2022/03/17 00:59:01;;;;;;;54.45;37.58;;;5.80;1.00;;;;;;5088165;28;20229;-83
2022/03/17 01:01:28;;;;;;;47.97;35.42;;;5.80;1.00;;;;;;5089539;28;20213;-83
2022/03/17 01:03:55;;;;;;;52.47;36.20;;;5.80;1.00;;;;;;5076035;28;20332;-83
2022/03/17 01:06:22;;;;;;;49.60;36.03;;;5.80;1.00;;;;;;5062755;28;20225;-84
2022/03/17 01:08:50;;;;;;;48.58;37.63;;;5.80;1.00;;;;;;5073236;28;20319;-82
2022/03/17 01:11:17;;;;;;;49.75;35.47;;;5.80;1.00;;;;;;5066899;28;20286;-83
2022/03/17 01:13:43;;;;;;;48.40;34.65;;;5.70;1.00;;;;;;5082095;28;20201;-84
2022/03/17 01:16:10;;;;;;;51.90;36.70;;;5.70;1.00;;;;;;5087788;28;20235;-82
2022/03/17 01:18:37;;;;;;;52.03;37.40;;;5.70;1.00;;;;;;5082558;28;20269;-83
2022/03/17 01:21:04;;;;;;;49.60;36.58;;;5.70;1.00;;;;;;5065798;28;20398;-83
2022/03/17 01:23:30;;;;;;;49.15;35.50;;;5.70;1.00;;;;;;5079523;28;20276;-83
2022/03/17 01:25:58;;;;;;;52.13;37.55;;;5.70;1.00;;;;;;5083170;28;20220;-83
2022/03/17 01:28:25;;;;;;;48.95;36.30;;;5.70;1.00;;;;;;5064894;28;20239;-83
2022/03/17 01:30:53;;;;;;;54.22;37.85;;;5.70;1.00;;;;;;5074874;28;20236;-83
2022/03/17 01:33:20;;;;;;;50.92;35.42;;;5.70;1.00;;;;;;5077467;28;20232;-84
2022/03/17 01:35:47;;;;;;;47.75;34.67;;;5.70;1.00;;;;;;5077249;28;20331;-82
2022/03/17 01:38:13;;;;;;;51.85;38.22;;;5.60;1.00;;;;;;5082574;28;20272;-83
2022/03/17 01:40:40;;;;;;;50.92;36.88;;;5.60;1.00;;;;;;5094994;27;20219;-84
2022/03/17 01:43:08;;;;;;;53.25;38.78;;;5.60;1.00;;;;;;5108013;27;20224;-82
2022/03/17 01:45:36;;;;;;;56.90;37.97;;;5.60;1.00;;;;;;5096653;27;20248;-83
2022/03/17 01:48:03;;;;;;;49.90;36.35;;;5.50;1.00;;;;;;5061672;28;20421;-82
2022/03/17 01:50:29;;;;;;;50.67;38.05;;;5.50;1.00;;;;;;5074115;28;20272;-83
2022/03/17 01:52:56;;;;;;;47.85;35.92;;;5.50;1.00;;;;;;5074432;28;20224;-83
2022/03/17 01:55:23;;;;;;;50.65;37.83;;;5.50;1.00;;;;;;5084018;28;20217;-83
2022/03/17 01:57:49;;;;;;;50.45;36.58;;;5.50;1.00;;;;;;5080960;28;20225;-82
2022/03/17 02:00:21;;;;;;;54.50;38.80;;;5.50;1.00;;;;;;5083091;28;20335;-82
2022/03/17 02:02:49;;;;;;;53.55;37.33;;;5.50;1.00;;;;;;5079364;28;20343;-82
2022/03/17 02:05:17;;;;;;;55.95;39.20;;;5.50;1.00;;;;;;5080477;28;21039;-82
2022/03/17 02:07:46;;;;;;;55.83;40.25;;;5.40;1.00;;;;;;5083271;28;20213;-82
2022/03/17 02:10:14;;;;;;;52.95;38.83;;;5.40;1.00;;;;;;5077271;28;20319;-82
2022/03/17 02:15:28;;;;;;;55.42;40.60;;;5.40;1.00;;;;;;5077762;28;20224;-83
2022/03/17 02:17:56;;;;;;;50.58;36.35;;;5.40;1.00;;;;;;5073540;28;20407;-82
2022/03/17 02:20:24;;;;;;;52.47;38.95;;;5.40;1.00;;;;;;5078328;28;20357;-82
2022/03/17 02:22:53;;;;;;;53.42;40.53;;;5.40;1.00;;;;;;5078051;28;20347;-82
2022/03/17 02:25:36;;;;;;;61.22;40.22;;;5.30;1.00;;;;;;5078410;28;21056;-81
2022/03/17 02:28:04;;;;;;;53.30;39.35;;;5.30;1.00;;;;;;5082454;28;20281;-83
2022/03/17 02:30:34;;;;;;;51.72;41.03;;;5.40;1.00;;;;;;5083272;28;20243;-81
2022/03/17 02:33:02;;;;;;;56.08;40.72;;;5.30;1.00;;;;;;5088238;28;20251;-82
2022/03/17 02:35:32;;;;;;;53.28;39.25;;;5.30;1.00;;;;;;5081922;28;20834;-81
2022/03/17 02:38:01;;;;;;;51.55;40.55;;;5.30;1.00;;;;;;5078486;28;20278;-81
2022/03/17 02:40:29;;;;;;;59.47;42.08;;;5.30;1.00;;;;;;5081147;28;20222;-84
2022/03/17 02:42:57;;;;;;;51.83;39.30;;;5.30;1.00;;;;;;5081886;28;20989;-82
2022/03/17 02:45:24;;;;;;;49.28;38.50;;;5.20;1.00;;;;;;5083339;28;20224;-81
2022/03/17 02:47:51;;;;;;;56.60;40.78;;;5.20;1.00;;;;;;5073061;28;20217;-82
2022/03/17 02:50:18;;;;;;;52.28;39.25;;;5.20;1.00;;;;;;5087203;28;20224;-82
2022/03/17 02:52:45;;;;;;;54.70;38.88;;;5.20;1.00;;;;;;5081575;28;20236;-82
2022/03/17 02:55:14;;;;;;;55.42;40.53;;;5.20;1.00;;;;;;5076651;28;21240;-82
2022/03/17 02:57:44;;;;;;;53.10;39.05;;;5.20;1.00;;;;;;5081623;28;20251;-82
2022/03/17 03:00:13;;;;;;;56.72;39.30;;;5.20;1.00;;;;;;5075439;28;20236;-82
2022/03/17 03:02:40;;;;;;;56.42;40.95;;;5.20;1.00;;;;;;5080126;28;20331;-82
2022/03/17 03:05:08;;;;;;;59.28;42.83;;;5.20;1.00;;;;;;5079851;28;20218;-81
2022/03/17 03:07:35;;;;;;;50.33;40.88;;;5.20;1.00;;;;;;5080598;28;20299;-82
2022/03/17 03:10:02;;;;;;;53.15;40.47;;;5.10;1.00;;;;;;5065404;28;21134;-82
2022/03/17 03:12:29;;;;;;;56.83;40.92;;;5.10;1.00;;;;;;5086292;28;20323;-82
2022/03/17 03:14:57;;;;;;;57.90;42.15;;;5.10;1.00;;;;;;5087179;28;20212;-82
2022/03/17 03:17:25;;;;;;;55.05;42.13;;;5.10;1.00;;;;;;5066326;28;20306;-82
2022/03/17 03:19:52;;;;;;;53.88;41.10;;;5.10;1.00;;;;;;5090113;28;20346;-82
2022/03/17 03:22:19;;;;;;;53.63;40.55;;;5.10;1.00;;;;;;5104801;27;20214;-83
2022/03/17 03:24:46;;;;;;;55.75;41.97;;;5.10;1.00;;;;;;5096224;28;20290;-83
2022/03/17 03:27:13;;;;;;;61.13;43.72;;;5.20;1.00;;;;;;5101004;28;20205;-82
2022/03/17 03:29:40;;;;;;;59.80;41.20;;;5.20;1.00;;;;;;5093276;28;20267;-82
2022/03/17 03:32:09;;;;;;;60.95;41.55;;;5.20;1.00;;;;;;5067797;28;20296;-83
2022/03/17 03:34:36;;;;;;;53.88;42.33;;;5.10;1.00;;;;;;5082566;28;20225;-83
2022/03/17 03:39:47;;;;;;;57.95;41.70;;;5.10;1.00;;;;;;5075959;28;20220;-82
2022/03/17 03:42:15;;;;;;;54.45;43.58;;;5.10;1.00;;;;;;5082386;28;20246;-82
2022/03/17 03:44:41;;;;;;;58.83;43.22;;;5.10;1.00;;;;;;5079960;28;21154;-82
2022/03/17 03:47:10;;;;;;;57.55;42.42;;;5.10;1.00;;;;;;5077114;28;20625;-82
2022/03/17 03:49:39;;;;;;;61.95;43.30;;;5.10;1.00;;;;;;5082026;28;20225;-82
2022/03/17 03:52:07;;;;;;;65.60;44.95;;;5.10;1.00;;;;;;5078890;28;20279;-82
2022/03/17 03:54:34;;;;;;;58.03;42.53;;;5.10;1.00;;;;;;5079713;28;20240;-82
2022/03/17 03:57:03;;;;;;;57.88;42.55;;;5.00;1.00;;;;;;5080510;28;21325;-82
2022/03/17 03:59:31;;;;;;;55.97;43.50;;;5.10;1.00;;;;;;5088296;28;20276;-81
2022/03/17 04:01:59;;;;;;;60.08;44.08;;;5.10;1.00;;;;;;5084106;28;20301;-83
2022/03/17 04:04:29;;;;;;;59.72;43.10;;;5.00;1.00;;;;;;5076386;28;20311;-82
2022/03/17 04:06:58;;;;;;;56.03;42.60;;;5.10;1.00;;;;;;5080463;28;20209;-82
2022/03/17 04:09:26;;;;;;;58.83;44.38;;;5.10;1.00;;;;;;5080916;28;20224;-82
2022/03/17 04:11:54;;;;;;;62.97;48.05;;;5.10;1.00;;;;;;5079683;28;20308;-82
2022/03/17 04:14:21;;;;;;;62.05;46.90;;;5.00;1.00;;;;;;5063157;28;20301;-82
2022/03/17 04:16:48;;;;;;;56.90;43.75;;;5.00;1.00;;;;;;5078405;28;20231;-82
2022/03/17 04:19:16;;;;;;;60.65;44.70;;;5.00;1.00;;;;;;5063965;28;20315;-82
2022/03/17 04:21:45;;;;;;;60.30;44.95;;;5.00;1.00;;;;;;5087028;28;20229;-82
2022/03/17 04:24:12;;;;;;;58.90;46.00;;;5.00;1.00;;;;;;5084955;28;20232;-82
2022/03/17 04:26:40;;;;;;;63.03;45.47;;;5.00;1.00;;;;;;5081972;28;20236;-82
2022/03/17 04:29:09;;;;;;;65.05;45.78;;;5.00;1.00;;;;;;5078190;28;20945;-82
2022/03/17 04:31:37;;;;;;;59.55;44.90;;;5.00;1.00;;;;;;5081057;28;20228;-82
2022/03/17 04:34:04;;;;;;;62.83;45.70;;;5.00;1.00;;;;;;5078039;28;20292;-83
2022/03/17 04:36:31;;;;;;;63.00;46.38;;;5.00;1.00;;;;;;5080941;28;20238;-82
2022/03/17 04:39:00;;;;;;;57.15;44.92;;;4.90;1.00;;;;;;5081906;28;20821;-83
2022/03/17 04:41:28;;;;;;;65.18;48.13;;;4.90;1.00;;;;;;5079963;28;20311;-83
2022/03/17 04:43:54;;;;;;;64.13;47.30;;;4.90;1.00;;;;;;5077034;28;20221;-83
2022/03/17 04:46:21;;;;;;;60.63;48.55;;;4.90;1.00;;;;;;5079225;28;20221;-84
2022/03/17 04:48:48;;;;;;;64.07;47.15;;;4.90;1.00;;;;;;5081406;28;21028;-83
2022/03/17 04:51:15;;;;;;;65.88;46.85;;;4.90;1.00;;;;;;5077962;28;20231;-83
2022/03/17 04:53:42;;;;;;;68.57;48.35;;;4.90;1.00;;;;;;5061699;28;21071;-84
2022/03/17 04:56:13;;;;;;;62.13;45.80;;;4.90;1.00;;;;;;5076070;28;20241;-83
2022/03/17 04:58:42;;;;;;;65.20;49.85;;;4.90;1.00;;;;;;5081552;28;20285;-83
2022/03/17 05:01:09;;;;;;;64.50;46.72;;;4.90;1.00;;;;;;5080290;28;20221;-85
2022/03/17 05:03:37;;;;;;;64.35;46.50;;;4.90;1.00;;;;;;5091716;28;20418;-84
2022/03/17 05:06:05;;;;;;;73.38;46.95;;;4.80;1.00;;;;;;5087375;28;20286;-84
2022/03/17 05:08:34;;;;;;;65.90;48.63;;;4.80;1.00;;;;;;5062264;28;20716;-83
2022/03/17 05:11:02;;;;;;;70.43;48.45;;;4.80;1.00;;;;;;5079115;28;20658;-85
2022/03/17 05:13:31;;;;;;;65.20;47.03;;;4.80;1.00;;;;;;5067683;28;20225;-83
2022/03/17 05:15:59;;;;;;;63.67;49.92;;;4.80;1.00;;;;;;5066158;28;20708;-83
2022/03/17 05:18:26;;;;;;;63.45;48.33;;;4.90;1.00;;;;;;5077147;28;20329;-83
2022/03/17 05:20:53;;;;;;;66.43;48.67;;;4.90;1.00;;;;;;5088606;28;20272;-83
2022/03/17 05:23:21;;;;;;;61.53;47.85;;;4.90;1.00;;;;;;5089573;28;20492;-85
2022/03/17 05:25:50;;;;;;;65.63;48.35;;;5.00;1.00;;;;;;5087722;28;20224;-83
2022/03/17 05:28:17;;;;;;;72.47;49.08;;;5.00;1.00;;;;;;5081632;28;20787;-84
2022/03/17 05:30:47;;;;;;;68.18;49.38;;;5.00;1.00;;;;;;5086919;28;20406;-84
2022/03/17 05:33:14;;;;;;;66.78;50.78;;;4.90;1.00;;;;;;5068668;28;20515;-84
2022/03/17 05:35:46;;;;;;;69.70;49.08;;;5.00;1.00;;;;;;5087432;28;20249;-82
2022/03/17 05:38:13;;;;;;;64.95;50.88;;;4.90;1.00;;;;;;5089437;28;21114;-84
2022/03/17 05:40:41;;;;;;;61.53;47.33;;;4.90;1.00;;;;;;5088693;28;21161;-83
2022/03/17 05:43:10;;;;;;;67.32;50.42;;;4.90;1.00;;;;;;5085965;28;20316;-83
2022/03/17 05:45:39;;;;;;;72.40;50.58;;;5.00;1.00;;;;;;5064949;28;21768;-83
2022/03/17 05:48:08;;;;;;;67.60;49.75;;;5.00;1.00;;;;;;5063201;28;20288;-82
2022/03/17 05:50:37;;;;;;;71.07;48.15;;;5.00;1.00;;;;;;5085555;28;20996;-82
2022/03/17 05:53:08;;;;;;;66.55;51.10;;;5.00;1.00;;;;;;5088149;28;20314;-83
2022/03/17 05:55:35;;;;;;;77.00;54.15;;;5.00;1.00;;;;;;5099433;28;20221;-81
2022/03/17 05:58:02;;;;;;;69.00;51.05;;;5.00;1.00;;;;;;5092228;28;20259;-85
2022/03/17 06:00:31;;;;;;;70.57;53.20;;;5.10;1.00;;;;;;5068519;28;21017;-82
2022/03/17 06:03:00;;;;;;;72.32;51.08;;;5.10;1.00;;;;;;5080085;28;20221;-82
2022/03/17 06:05:29;;;;;;;71.43;52.28;;;5.10;1.00;;;;;;5086409;28;20225;-82
2022/03/17 06:08:00;;;;;;;67.45;51.58;;;5.10;1.00;;;;;;5071504;28;20237;-82
2022/03/17 06:10:32;;;;;;;72.88;53.25;;;5.10;1.00;;;;;;5072533;28;20231;-82
2022/03/17 06:13:00;;;;;;;73.15;52.28;;;5.20;1.00;;;;;;5085817;28;20239;-83
2022/03/17 06:15:27;;;;;;;74.47;56.15;;;5.20;1.00;;;;;;5088169;28;20226;-83
2022/03/17 06:18:19;;;;;;;77.90;55.13;;;5.20;1.00;;;;;;5099757;28;20312;-82
2022/03/17 06:21:12;;;;;;;79.85;54.75;;;5.20;1.00;;;;;;5103555;28;20339;-83
2022/03/17 06:24:06;;;;;;;71.65;54.38;;;5.30;1.00;;;;;;5105725;27;20236;-82
2022/03/17 06:26:58;;;;;;;73.10;55.33;;;5.30;1.00;;;;;;5106057;27;20212;-85
2022/03/17 06:29:52;;;;;;;67.00;51.05;;;5.40;1.00;;;;;;5112614;27;20212;-85
2022/03/17 06:32:45;;;;;;;72.10;52.65;;;5.40;1.00;;;;;;5107332;27;20240;-84
2022/03/17 06:35:38;;;;;;;71.38;55.85;;;5.50;1.00;;;;;;5103961;27;20213;-86
2022/03/17 06:38:31;;;;;;;68.13;51.20;;;5.50;1.00;;;;;;5108843;27;20204;-80
2022/03/17 06:41:23;;;;;;;81.65;57.00;;;5.60;1.00;;;;;;5103006;27;20426;-81
2022/03/17 06:43:57;;;;;;;71.00;54.75;;;5.60;1.00;;;;;;5105605;27;20224;-82
2022/03/17 06:46:24;;;;;;;74.45;52.60;;;5.60;1.00;;;;;;5096314;27;20239;-79
2022/03/17 06:48:51;;;;;;;69.65;53.00;;;5.70;1.00;;;;;;5104364;27;20209;-86
2022/03/17 06:51:18;;;;;;;75.43;53.40;;;5.80;1.00;;;;;;5108211;27;20250;-84
2022/03/17 06:53:46;;;;;;;73.45;53.45;;;5.90;1.00;;;;;;5089525;28;20216;-88
2022/03/17 06:56:15;;;;;;;71.75;55.17;;;5.90;1.00;;;;;;5080718;28;20213;-85
2022/03/17 06:58:42;;;;;;;71.40;54.28;;;5.90;1.00;;;;;;5087059;28;20228;-87
2022/03/17 07:01:09;;;;;;;72.22;55.13;;;5.90;1.00;;;;;;5084064;28;20213;-86
2022/03/17 07:03:36;;;;;;;75.05;55.75;;;6.00;1.00;;;;;;5090150;28;20354;-86
2022/03/17 07:06:09;;;;;;;73.40;57.40;;;6.00;1.00;;;;;;5107367;27;20209;-84
2022/03/17 07:08:36;;;;;;;79.45;58.63;;;6.00;1.00;;;;;;5105724;22;20300;-83
2022/03/17 07:11:04;;;;;;;73.55;53.40;;;6.10;1.00;;;;;;5130614;27;20212;-83
2022/03/17 07:13:31;;;;;;;75.80;54.03;;;6.10;1.00;;;;;;5133745;27;20235;-83
2022/03/17 07:15:58;;;;;;;77.50;57.45;;;6.10;1.00;;;;;;5136060;27;20235;-84
2022/03/17 07:18:25;;;;;;;76.22;55.60;;;6.10;1.00;;;;;;5130740;27;20235;-84
2022/03/17 07:20:53;;;;;;;76.57;56.83;;;6.20;1.00;;;;;;5133779;27;20212;-84
2022/03/17 07:23:19;;;;;;;74.75;56.42;;;6.30;1.00;;;;;;5137646;27;20261;-85
2022/03/17 07:25:46;;;;;;;78.00;58.08;;;6.40;1.00;;;;;;5136521;27;20226;-85
2022/03/17 07:28:15;;;;;;;77.47;55.83;;;6.50;1.00;;;;;;5124874;27;20235;-85
2022/03/17 07:30:42;;;;;;;78.45;60.08;;;6.60;1.00;;;;;;5120448;27;20228;-85
2022/03/17 07:33:09;;;;;;;76.70;58.50;;;6.70;1.00;;;;;;5117670;27;20248;-83
2022/03/17 07:35:36;;;;;;;79.88;59.47;;;6.70;1.00;;;;;;5120720;27;20225;-84
2022/03/17 07:38:06;;;;;;;76.15;58.58;;;6.70;1.00;;;;;;5113117;27;20227;-83
2022/03/17 07:40:33;;;;;;;84.32;57.97;;;6.70;1.00;;;;;;5109163;27;20221;-82
2022/03/17 07:43:01;;;;;;;72.03;56.50;;;6.70;1.00;;;;;;5111998;27;20220;-83
2022/03/17 07:45:30;;;;;;;77.57;57.35;;;6.80;1.00;;;;;;5105466;27;20267;-82
2022/03/17 07:47:57;;;;;;;76.57;58.40;;;6.90;1.00;;;;;;5101953;27;20242;-82
2022/03/17 07:50:24;;;;;;;76.38;56.55;;;6.90;1.00;;;;;;5103773;27;20227;-83
2022/03/17 07:52:52;;;;;;;78.22;57.63;;;7.00;1.00;;;;;;5087194;28;20293;-82
2022/03/17 07:55:29;;;;;;;76.90;58.05;;;7.00;1.00;;;;;;5099864;28;20223;-85
2022/03/17 08:00:42;;;;;;;80.30;59.05;;;7.00;1.00;;;;;;5098477;27;20236;-80
2022/03/17 08:03:09;;;;;;;70.93;57.03;;;7.10;1.00;;;;;;5096156;27;20223;-84
2022/03/17 08:05:36;;;;;;;75.95;58.72;;;7.30;1.00;;;;;;5098979;27;20255;-86
2022/03/17 08:08:03;;;;;;;75.63;58.75;;;7.40;1.00;;;;;;5105195;27;20367;-83
2022/03/17 08:10:30;;;;;;;75.40;59.22;;;7.50;1.00;;;;;;5104034;27;20292;-83
2022/03/17 08:12:58;;;;;;;72.25;58.90;;;7.60;1.00;;;;;;5105058;27;20920;-82
2022/03/17 08:15:26;;;;;;;70.00;57.40;;;7.70;1.00;;;;;;5110663;27;20247;-81
2022/03/17 08:17:57;;;;;;;80.55;68.45;;;7.70;1.00;;;;;;5104859;27;20227;-81
2022/03/17 08:20:25;;;;;;;76.60;58.95;;;7.80;1.00;;;;;;5107384;27;20224;-81
2022/03/17 08:22:51;;;;;;;77.47;60.10;;;7.90;1.00;;;;;;5104362;27;20252;-86
2022/03/17 08:25:19;;;;;;;75.70;58.03;;;8.00;1.00;;;;;;5104204;27;20234;-84
2022/03/17 08:27:50;;;;;;;76.67;59.43;;;8.10;1.00;;;;;;5097482;28;20220;-85
2022/03/17 08:30:18;;;;;;;75.15;60.50;;;8.20;1.00;;;;;;5109055;27;23973;-85
2022/03/17 08:32:45;;;;;;;72.43;59.33;;;8.30;1.00;;;;;;5122913;27;20231;-85
2022/03/17 08:35:14;;;;;;;73.25;59.17;;;8.30;1.00;;;;;;5131858;27;20284;-88
2022/03/17 08:37:41;;;;;;;75.13;57.55;;;8.40;1.00;;;;;;5132553;27;20207;-86
2022/03/17 08:40:09;;;;;;;76.25;59.05;;;8.40;1.00;;;;;;5128109;27;20224;-86
2022/03/17 08:42:36;;;;;;;82.63;60.42;;;8.40;1.00;;;;;;5128990;27;20280;-84
2022/03/17 08:49:18;;;;;;;68.93;57.15;;;8.40;1.00;;;;;;5128372;27;20236;-85
2022/03/17 08:50:38;;;;;;;69.55;58.03;;;8.50;1.00;;;;;;5118421;27;20307;-86
2022/03/17 08:53:05;;;;;;;68.15;57.42;;;8.50;1.00;;;;;;5102715;27;21068;-83
2022/03/17 08:55:32;;;;;;;69.33;56.53;;;8.60;1.00;;;;;;5108128;27;20282;-84
2022/03/17 08:57:59;;;;;;;74.65;58.10;;;8.60;1.00;;;;;;5110273;27;20445;-84
2022/03/17 09:00:26;;;;;;;68.85;55.75;;;8.70;1.00;;;;;;5114192;27;20239;-83
2022/03/17 09:02:55;;;;;;;73.60;59.50;;;8.60;1.00;;;;;;5117031;27;20219;-84
2022/03/17 09:05:22;;;;;;;68.03;55.63;;;8.80;1.00;;;;;;5117029;27;20527;-84
2022/03/17 09:07:53;;;;;;;70.17;57.27;;;8.90;1.00;;;;;;5101496;27;20549;-84
2022/03/17 09:10:22;;;;;;;72.27;55.70;;;9.10;1.00;;;;;;5105263;27;20422;-84
2022/03/17 09:12:51;;;;;;;64.30;53.60;;;9.10;1.00;;;;;;5131668;27;20492;-85
2022/03/17 09:15:21;;;;;;;66.20;55.20;;;9.10;1.00;;;;;;5113019;27;20215;-84
2022/03/17 09:17:49;;;;;;;69.70;56.43;;;9.20;1.00;;;;;;5126109;27;20533;-81
2022/03/17 09:20:16;;;;;;;67.07;55.53;;;9.20;1.00;;;;;;5116813;27;20487;-86
2022/03/17 09:22:45;;;;;;;65.97;52.63;;;9.20;1.00;;;;;;5124114;27;20433;-87
2022/03/17 09:25:23;;;;;;;65.10;55.20;;;9.20;1.00;;;;;;5112976;27;20449;-87
2022/03/17 09:27:52;;;;;;;70.23;55.07;;;9.30;1.00;;;;;;5096334;28;20559;-88
2022/03/17 09:30:20;;;;;;;71.00;56.17;;;9.40;1.00;;;;;;5076279;28;20464;-85
2022/03/17 09:32:47;;;;;;;64.43;54.87;;;9.40;1.00;;;;;;5095045;28;20419;-84
2022/03/17 09:35:16;;;;;;;63.87;52.97;;;9.50;1.00;;;;;;5083743;28;20455;-85
2022/03/17 09:37:43;;;;;;;64.70;52.20;;;9.70;1.00;;;;;;5079716;28;20483;-89
2022/03/17 09:40:27;;;;;;;67.13;55.20;;;9.70;1.00;;;;;;5071274;28;21195;-86
2022/03/17 09:43:18;;;;;;;66.93;55.13;;;9.80;1.00;;;;;;5082487;28;20470;-86
2022/03/17 09:45:50;;;;;;;67.07;53.30;;;9.90;1.00;;;;;;5059223;28;20435;-88
2022/03/17 09:48:19;;;;;;;65.47;52.70;;;9.90;1.00;;;;;;5086679;28;20428;-86
2022/03/17 09:55:52;;;;;;;64.43;52.73;;;9.90;1.00;;;;;;5078906;28;20448;-88
2022/03/17 10:02:26;;;;;;;68.23;54.53;;;10.20;1.00;;;;;;4925847;28;20534;-86
2022/03/17 10:05:01;;;;;;;62.80;52.57;;;10.30;1.00;;;;;;5031439;28;20509;-87
2022/03/17 10:07:37;;;;;;;60.00;50.40;;;10.30;1.00;;;;;;5084606;28;20435;-86
2022/03/17 10:10:12;;;;;;;64.50;51.57;;;10.40;1.00;;;;;;5055651;28;21596;-87
2022/03/17 10:12:49;;;;;;;65.23;53.43;;;10.50;1.00;;;;;;5066751;28;20479;-89
2022/03/17 10:18:30;;;;;;;57.23;51.00;;;10.60;1.00;;;;;;5083769;28;20527;-88
2022/03/17 10:21:41;;;;;;;63.27;53.57;;;10.70;1.00;;;;;;5001632;28;20457;-88
2022/03/17 10:31:14;;;;;;;56.10;48.40;;;10.60;1.00;;;;;;5000954;28;20542;-88
2022/03/17 10:33:43;;;;;;;60.73;49.13;;;10.60;1.00;;;;;;5025922;28;20520;-81
2022/03/17 10:36:15;;;;;;;60.93;51.60;;;10.60;1.00;;;;;;5079713;28;20462;-83
2022/03/17 10:38:44;;;;;;;52.30;44.73;;;10.60;1.00;;;;;;5079755;28;20890;-83
2022/03/17 10:41:12;;;;;;;59.90;50.50;;;10.60;1.00;;;;;;5071588;28;20460;-83
2022/03/17 10:43:41;;;;;;;63.47;50.20;;;10.80;1.00;;;;;;5068282;28;20477;-81
2022/03/17 10:46:11;;;;;;;56.40;48.87;;;10.80;1.00;;;;;;5082357;28;20408;-83
2022/03/17 10:48:55;;;;;;;59.00;50.50;;;10.80;1.00;;;;;;5080889;28;20629;-82
2022/03/17 10:51:41;;;;;;;61.53;51.03;;;10.90;1.00;;;;;;5094551;28;20503;-82
2022/03/17 10:54:10;;;;;;;63.40;48.33;;;10.90;1.00;;;;;;5100808;27;20428;-82
2022/03/17 10:56:38;;;;;;;55.57;48.30;;;10.90;1.00;;;;;;5111696;28;20403;-80
2022/03/17 10:59:07;;;;;;;61.80;50.47;;;11.10;1.00;;;;;;5114303;27;20443;-83
2022/03/17 11:01:42;;;;;;;57.43;49.53;;;11.20;1.00;;;;;;5112608;28;20538;-83
2022/03/17 11:04:11;;;;;;;57.67;48.50;;;11.30;1.00;;;;;;5114644;27;20415;-83
2022/03/17 11:06:38;;;;;;;56.17;48.37;;;11.40;1.00;;;;;;5117487;28;20399;-82
2022/03/17 11:09:08;;;;;;;59.73;49.00;;;11.40;1.00;;;;;;5103446;28;20429;-83
2022/03/17 11:11:38;;;;;;;58.57;50.00;;;11.40;1.00;;;;;;5090251;28;20958;-83
2022/03/17 11:14:06;;;;;;;52.73;47.00;;;11.70;1.00;;;;;;5089553;28;20494;-83
2022/03/17 11:16:37;;;;;;;56.00;49.67;;;12.00;1.00;;;;;;5085943;28;20515;-82
2022/03/17 11:19:09;;;;;;;53.43;46.90;;;12.20;1.00;;;;;;5089141;28;20431;-82
2022/03/17 11:21:37;;;;;;;54.60;47.60;;;12.20;1.00;;;;;;5092043;28;21374;-83
2022/03/17 11:24:06;;;;;;;53.70;46.03;;;12.20;1.00;;;;;;5096988;28;20417;-84
2022/03/17 11:26:35;;;;;;;53.10;46.10;;;12.20;1.00;;;;;;5111806;28;20481;-81
2022/03/17 11:29:08;;;;;;;51.60;46.00;;;12.30;1.00;;;;;;5112683;27;20434;-83
2022/03/17 11:31:59;;;;;;;51.90;46.30;;;12.30;1.00;;;;;;5110381;28;20415;-82
2022/03/17 11:34:46;;;;;;;56.30;46.87;;;12.30;1.00;;;;;;5109224;28;20443;-82
2022/03/17 11:37:22;;;;;;;51.90;46.37;;;12.40;1.00;;;;;;5101878;28;20425;-82
2022/03/17 11:39:54;;;;;;;51.57;45.60;;;12.40;1.00;;;;;;5082636;28;20438;-83
2022/03/17 11:42:32;;;;;;;49.87;44.57;;;12.50;1.00;;;;;;5107214;28;20426;-80
2022/03/17 11:45:34;;;;;;;49.70;44.40;;;12.30;1.00;;;;;;5106613;28;20443;-82
2022/03/17 11:48:02;;;;;;;48.57;43.00;;;12.30;1.00;;;;;;5098231;28;20411;-81
2022/03/17 11:50:32;;;;;;;49.40;42.07;;;12.30;1.00;;;;;;5089488;28;20553;-83
2022/03/17 11:53:03;;;;;;;50.97;44.37;;;12.20;1.00;;;;;;5094871;28;20524;-83
2022/03/17 11:55:35;;;;;;;51.13;43.63;;;12.10;1.00;;;;;;5072492;28;20457;-82
2022/03/17 11:58:29;;;;;;;49.67;42.10;;;12.10;1.00;;;;;;5088027;28;20451;-83
2022/03/17 12:01:04;;;;;;;49.47;41.33;;;12.10;1.00;;;;;;5084215;28;20472;-83
2022/03/17 12:03:32;;;;;;;46.20;41.10;;;12.20;1.00;;;;;;5086646;28;20482;-88
2022/03/17 12:06:08;;;;;;;48.67;43.40;;;12.40;1.00;;;;;;5092836;28;20465;-83
2022/03/17 12:08:38;;;;;;;51.13;43.73;;;12.60;1.00;;;;;;5080769;28;20466;-83
2022/03/17 12:11:07;;;;;;;51.87;43.80;;;12.60;1.00;;;;;;5085927;28;20470;-82
2022/03/17 12:13:36;;;;;;;49.40;44.00;;;12.70;1.00;;;;;;5086413;28;20619;-82
2022/03/17 12:16:05;;;;;;;50.17;42.77;;;12.70;1.00;;;;;;5071858;28;20438;-82
2022/03/17 12:19:00;;;;;;;47.67;40.93;;;12.70;1.00;;;;;;5087881;28;20427;-83
2022/03/17 12:22:00;;;;;;;46.30;41.40;;;12.90;1.00;;;;;;5089822;28;20496;-83
2022/03/17 12:24:39;;;;;;;47.40;42.43;;;13.10;1.00;;;;;;5078116;28;20440;-83
2022/03/17 12:27:09;;;;;;;47.83;40.27;;;13.00;1.00;;;;;;5090835;28;20475;-84
2022/03/17 12:29:36;;;;;;;47.17;41.30;;;13.10;1.00;;;;;;5086208;28;20498;-83
2022/03/17 12:32:08;;;;;;;45.37;40.53;;;13.20;1.00;;;;;;5088142;28;20431;-81
2022/03/17 12:34:36;;;;;;;45.80;40.67;;;13.10;1.00;;;;;;5083062;28;20474;-82
2022/03/17 12:37:04;;;;;;;46.97;40.83;;;12.90;1.00;;;;;;5084158;28;20441;-82
2022/03/17 12:39:32;;;;;;;46.40;40.87;;;12.80;1.00;;;;;;5083051;28;20454;-81
2022/03/17 12:42:01;;;;;;;46.37;41.13;;;12.70;1.00;;;;;;5086941;28;20461;-83
2022/03/17 12:44:29;;;;;;;45.43;40.43;;;12.70;1.00;;;;;;5090672;28;20395;-82
2022/03/17 12:46:56;;;;;;;44.47;39.77;;;12.60;1.00;;;;;;5081428;28;20459;-82
2022/03/17 12:49:24;;;;;;;54.00;44.63;;;12.60;1.00;;;;;;5083662;28;20447;-82
2022/03/17 12:51:50;;;;;;;47.37;42.27;;;12.70;1.00;;;;;;5084707;28;21829;-81
2022/03/17 12:54:18;;;;;;;46.90;42.00;;;12.70;1.00;;;;;;5082420;28;20459;-83
2022/03/17 12:56:50;;;;;;;49.87;43.70;;;12.70;1.00;;;;;;5076361;28;20497;-84
2022/03/17 12:59:19;;;;;;;45.00;40.20;;;12.60;1.00;;;;;;5081448;28;20602;-85
2022/03/17 13:01:47;;;;;;;45.63;40.40;;;12.60;1.00;;;;;;5084632;28;20769;-83
2022/03/17 13:04:14;;;;;;;45.47;40.37;;;12.60;1.00;;;;;;5084518;28;20439;-84
2022/03/17 13:06:56;;;;;;;47.37;42.27;;;12.60;1.00;;;;;;5085501;28;20487;-84
2022/03/17 13:09:29;;;;;;;46.30;41.23;;;12.70;1.00;;;;;;5086512;28;21027;-83
2022/03/17 13:14:47;;;;;;;46.20;41.33;;;12.60;1.00;;;;;;5099266;28;20465;-82
2022/03/17 13:17:15;;;;;;;49.00;42.47;;;12.60;1.00;;;;;;5094871;28;20443;-83
2022/03/17 13:19:46;;;;;;;50.03;41.33;;;12.60;1.00;;;;;;5099116;28;20447;-83
2022/03/17 13:22:13;;;;;;;46.60;41.40;;;12.60;1.00;;;;;;5089983;27;20453;-83
2022/03/17 13:24:40;;;;;;;45.03;40.13;;;12.70;1.00;;;;;;5075960;28;20431;-79
2022/03/17 13:27:07;;;;;;;47.83;41.47;;;12.80;1.00;;;;;;5067554;28;20587;-81
2022/03/17 13:29:36;;;;;;;48.47;42.53;;;12.90;1.00;;;;;;5067077;28;20471;-81
2022/03/17 13:32:15;;;;;;;45.97;41.07;;;12.80;1.00;;;;;;5088506;28;20484;-80